createdAt,value
2017-07-27T07:41:56.397Z,255
2017-07-27T07:42:57.800Z,190
2017-07-27T07:44:19.760Z,175
2017-07-27T07:45:21.165Z,250
2017-07-27T07:46:22.571Z,295
2017-07-27T07:47:24.195Z,265
2017-07-27T07:48:25.605Z,270
2017-07-27T07:49:27.078Z,215
2017-07-27T07:50:28.487Z,215
2017-07-27T07:51:29.897Z,190
2017-07-27T07:52:31.397Z,235
2017-07-27T07:53:32.804Z,290
2017-07-27T07:54:34.215Z,295
2017-07-27T07:55:35.721Z,250
2017-07-27T07:56:37.153Z,230
2017-07-27T07:57:38.601Z,205
2017-07-27T07:58:40.015Z,150
2017-07-27T07:59:41.479Z,170
2017-07-27T08:00:42.887Z,270
2017-07-27T08:01:44.364Z,295
2017-07-27T08:02:45.773Z,280
2017-07-27T08:03:47.243Z,240
2017-07-27T08:04:48.665Z,255
2017-07-27T08:05:50.122Z,290
2017-07-27T08:06:51.530Z,310
2017-07-27T08:07:53.014Z,350
2017-07-27T08:08:54.418Z,335
2017-07-27T08:09:55.886Z,275
2017-07-27T08:10:57.296Z,235
2017-07-27T08:11:58.767Z,220
2017-07-27T08:13:00.179Z,225
2017-07-27T08:14:01.651Z,270
2017-07-27T08:15:03.059Z,310
2017-07-27T08:16:04.531Z,290
2017-07-27T08:17:05.940Z,275
2017-07-27T08:18:07.417Z,260
2017-07-27T08:19:08.829Z,255
2017-07-27T08:20:10.292Z,320
2017-07-27T08:21:11.700Z,345
2017-07-27T08:22:13.110Z,305
2017-07-27T08:23:14.627Z,325
2017-07-27T08:24:16.057Z,285
2017-07-27T08:25:17.468Z,310
2017-07-27T08:26:18.938Z,290
2017-07-27T08:27:20.385Z,410
2017-07-27T08:28:21.813Z,465
2017-07-27T08:29:23.200Z,500
2017-07-27T08:30:24.608Z,445
2017-07-27T08:31:26.140Z,435
2017-07-27T08:32:27.554Z,400
2017-07-27T08:33:29.021Z,355
2017-07-27T08:34:30.432Z,365
2017-07-27T08:35:31.902Z,430
2017-07-27T08:36:33.313Z,445
2017-07-27T08:37:34.788Z,425
2017-07-27T08:38:36.194Z,415
2017-07-27T08:39:37.662Z,435
2017-07-27T08:40:39.075Z,380
2017-07-27T08:41:40.542Z,325
2017-07-27T08:42:41.948Z,340
2017-07-27T08:43:43.423Z,395
2017-07-27T08:44:44.839Z,325
2017-07-27T08:45:46.305Z,440
2017-07-27T08:46:47.717Z,295
2017-07-27T08:47:49.128Z,280
2017-07-27T08:48:50.627Z,390
2017-07-27T08:49:52.036Z,495
2017-07-27T08:50:53.447Z,850
2017-07-27T08:51:54.947Z,715
2017-07-27T08:52:56.367Z,445
2017-07-27T08:53:57.776Z,380
2017-07-27T08:54:59.269Z,345
2017-07-27T08:56:00.682Z,270
2017-07-27T08:57:02.092Z,265
2017-07-27T08:58:03.591Z,260
2017-07-27T08:59:05.005Z,240
2017-07-27T09:00:06.413Z,250
2017-07-27T09:01:07.912Z,270
2017-07-27T09:02:09.329Z,290
2017-07-27T09:03:10.794Z,345
2017-07-27T09:04:12.201Z,395
2017-07-27T09:05:13.675Z,475
2017-07-27T09:06:15.086Z,520
2017-07-27T09:07:16.499Z,530
2017-07-27T09:08:18.000Z,675
2017-07-27T09:09:19.414Z,710
2017-07-27T09:10:20.830Z,1285
2017-07-27T09:11:22.320Z,2135
2017-07-27T09:12:23.730Z,2065
2017-07-27T09:13:25.142Z,600
2017-07-27T09:14:26.642Z,445
2017-07-27T09:15:28.054Z,2125
2017-07-27T09:16:29.470Z,960
2017-07-27T09:17:30.960Z,390
2017-07-27T09:18:32.380Z,665
2017-07-27T09:19:33.844Z,680
2017-07-27T09:20:35.255Z,2100
2017-07-27T09:21:36.724Z,870
2017-07-27T09:22:38.138Z,940
2017-07-27T09:23:39.552Z,510
2017-07-27T09:24:41.048Z,505
2017-07-27T09:25:42.459Z,370
2017-07-27T09:26:43.873Z,685
2017-07-27T09:27:45.370Z,560
2017-07-27T09:28:46.786Z,525
2017-07-27T09:29:48.250Z,520
2017-07-27T09:30:49.665Z,270
2017-07-27T09:31:51.127Z,240
2017-07-27T09:32:52.537Z,170
2017-07-27T09:33:53.980Z,1920
2017-07-27T09:34:55.491Z,2545
2017-07-27T09:35:56.907Z,2240
2017-07-27T09:36:58.325Z,1190
2017-07-27T09:37:59.813Z,705
2017-07-27T09:39:01.226Z,415
2017-07-27T09:40:02.691Z,645
2017-07-27T09:41:04.114Z,695
2017-07-27T09:42:05.790Z,720
2017-07-27T09:43:07.204Z,955
2017-07-27T09:44:08.877Z,1045
2017-07-27T09:45:10.291Z,725
2017-07-27T09:46:11.913Z,590
2017-07-27T09:47:13.325Z,655
2017-07-27T09:48:14.789Z,455
2017-07-27T09:49:16.203Z,535
2017-07-27T09:50:17.673Z,640
2017-07-27T09:51:19.089Z,500
2017-07-27T09:52:20.555Z,490
2017-07-27T09:53:21.970Z,385
2017-07-27T09:54:23.382Z,360
2017-07-27T09:55:24.901Z,410
2017-07-27T09:56:26.293Z,385
2017-07-27T09:57:27.706Z,340
2017-07-27T09:58:29.134Z,345
2017-07-27T09:59:30.543Z,460
2017-07-27T10:00:32.079Z,635
2017-07-27T10:01:33.490Z,400
2017-07-27T10:02:34.962Z,600
2017-07-27T10:03:36.373Z,270
2017-07-27T10:04:37.839Z,225
2017-07-27T10:05:39.253Z,205
2017-07-27T10:06:40.726Z,210
2017-07-27T10:07:42.139Z,335
2017-07-27T10:08:43.603Z,705
2017-07-27T10:09:45.015Z,765
2017-07-27T10:10:46.486Z,615
2017-07-27T10:11:47.898Z,1115
2017-07-27T10:12:49.312Z,1020
2017-07-27T10:13:50.807Z,410
2017-07-27T10:14:52.224Z,330
2017-07-27T10:15:53.634Z,320
2017-07-27T10:16:55.151Z,375
2017-07-27T10:17:56.558Z,410
2017-07-27T10:18:58.034Z,465
2017-07-27T10:19:59.477Z,355
2017-07-27T10:21:01.098Z,470
2017-07-27T10:22:02.516Z,355
2017-07-27T10:23:04.005Z,405
2017-07-27T10:24:05.415Z,370
2017-07-27T10:25:06.860Z,360
2017-07-27T10:26:08.270Z,335
2017-07-27T10:27:09.761Z,315
2017-07-27T10:28:11.178Z,395
2017-07-27T10:29:12.590Z,475
2017-07-27T10:30:14.088Z,555
2017-07-27T10:31:15.499Z,345
2017-07-27T10:32:16.954Z,300
2017-07-27T10:33:18.382Z,325
2017-07-27T10:34:19.793Z,410
2017-07-27T10:35:21.209Z,560
2017-07-27T10:36:22.704Z,620
2017-07-27T10:37:24.115Z,355
2017-07-27T10:38:25.528Z,265
2017-07-27T10:39:27.019Z,385
2017-07-27T10:40:28.435Z,440
2017-07-27T10:41:29.896Z,375
2017-07-27T10:42:31.347Z,590
2017-07-27T10:43:32.760Z,670
2017-07-27T10:44:34.170Z,505
2017-07-27T10:45:35.669Z,655
2017-07-27T10:46:37.083Z,590
2017-07-27T10:47:38.493Z,555
2017-07-27T10:48:40.023Z,720
2017-07-27T10:49:41.440Z,745
2017-07-27T10:50:42.857Z,755
2017-07-27T10:51:44.312Z,740
2017-07-27T10:52:45.719Z,665
2017-07-27T10:53:47.134Z,435
2017-07-27T10:54:48.632Z,570
2017-07-27T10:55:50.047Z,795
2017-07-27T10:56:51.513Z,440
2017-07-27T10:57:52.925Z,725
2017-07-27T10:58:54.339Z,535
2017-07-27T10:59:55.834Z,665
2017-07-27T11:00:57.276Z,540
2017-07-27T11:01:58.729Z,780
2017-07-27T11:03:00.363Z,1275
2017-07-27T11:04:01.782Z,2160
2017-07-27T11:05:03.192Z,2675
2017-07-27T11:06:04.686Z,2830
2017-07-27T11:07:06.097Z,3115
2017-07-27T11:08:07.512Z,2960
2017-07-27T11:09:09.013Z,2330
2017-07-27T11:10:10.431Z,1860
2017-07-27T11:11:11.848Z,1245
2017-07-27T11:12:13.328Z,875
2017-07-27T11:13:14.787Z,905
2017-07-27T11:14:16.205Z,905
2017-07-27T11:15:17.649Z,1120
2017-07-27T11:16:19.065Z,475
2017-07-27T11:17:20.478Z,420
2017-07-27T11:18:21.971Z,645
2017-07-27T11:19:23.387Z,490
2017-07-27T11:20:24.850Z,495
2017-07-27T11:21:26.278Z,505
2017-07-27T11:22:28.116Z,545
2017-07-27T11:23:29.520Z,650
2017-07-27T11:24:31.010Z,750
2017-07-27T11:25:32.465Z,830
2017-07-27T11:26:33.885Z,485
2017-07-27T11:27:35.298Z,815
2017-07-27T11:28:36.786Z,1040
2017-07-27T11:29:38.198Z,590
2017-07-27T11:30:39.613Z,1375
2017-07-27T11:31:41.024Z,1880
2017-07-27T11:32:42.444Z,2035
2017-07-27T11:33:43.988Z,1815
2017-07-27T11:34:45.405Z,2260
2017-07-27T11:35:46.887Z,770
2017-07-27T11:36:48.361Z,2845
2017-07-27T11:37:49.958Z,610
2017-07-27T11:38:51.371Z,435
2017-07-27T11:39:52.779Z,575
2017-07-27T11:40:54.277Z,485
2017-07-27T11:41:55.690Z,520
2017-07-27T11:42:57.103Z,770
2017-07-27T11:43:58.598Z,1965
2017-07-27T11:45:00.017Z,1775
2017-07-27T11:46:01.478Z,485
2017-07-27T11:47:02.896Z,1890
2017-07-27T11:48:04.364Z,2115
2017-07-27T11:49:05.780Z,2275
2017-07-27T11:50:07.193Z,2590
2017-07-27T11:51:08.684Z,2070
2017-07-27T11:52:10.102Z,1985
2017-07-27T11:53:11.517Z,2020
2017-07-27T11:54:13.051Z,2035
2017-07-27T11:55:14.469Z,2145
2017-07-27T11:56:15.896Z,2360
2017-07-27T11:57:17.325Z,2475
2017-07-27T11:58:18.742Z,2325
2017-07-27T11:59:20.169Z,1835
2017-07-27T12:00:21.860Z,1540
2017-07-27T12:01:23.278Z,1295
2017-07-27T12:02:24.703Z,1440
2017-07-27T12:03:26.171Z,1385
2017-07-27T12:04:27.588Z,1535
2017-07-27T12:05:29.017Z,1835
2017-07-27T12:06:30.432Z,1525
2017-07-27T12:07:31.850Z,2395
2017-07-27T12:08:33.376Z,2985
2017-07-27T12:09:34.794Z,2060
2017-07-27T12:10:36.255Z,1825
2017-07-27T12:11:37.675Z,1715
2017-07-27T12:12:39.141Z,3740
2017-07-27T12:13:40.556Z,2045
2017-07-27T12:14:42.018Z,4030
2017-07-27T12:15:43.436Z,3665
2017-07-27T12:16:44.898Z,1940
2017-07-27T12:17:46.314Z,1135
2017-07-27T12:18:47.731Z,1570
2017-07-27T12:19:49.222Z,820
2017-07-27T12:20:50.711Z,555
2017-07-27T12:21:52.151Z,470
2017-07-27T12:22:53.756Z,320
2017-07-27T12:23:55.197Z,315
